01:38 Rennrad Innsbruck ARZ - Radweg - Voels - Hatting - Pettnau - Haiming - Apfelstr - Moetz
Ort Innsbruck Datum 09.08.2017 16:23:05
Kategorie Rennrad
Distanz 55,06 Kilometer Steigung 195,0 Meter Gefälle -140,0 Meter
Gesamt Zeit 01:39:37 Aktiv 01:38:04 Pause 00:01:33
Durchs. Tempo 33,7 km/h Tempo max. 45,9 km/h Tempo min. 19,7 km/h
Kalorien 0 Durchs. HF 125 BPM HF max. 147 BPM
Wetter 24 °C Clouds Min/Max: 24,0 °C/25,4 °C; Druck: 1014,4 mbar; Rel. Feuchte: 79,3%; Taupunkt: 19,4 °C; Windgeschwindigkeit: 2,3 km/h; Niederschlag: 0,0mm
Ausrüstung Bontrager - RL Road
Scott - Addict 20
Notiz Innsbruck ARZ - Radweg - Voels - Hatting - Pettnau - Haiming - Apfelstr - Moetz ... trocken, schwuel, bis Pettnau leichter bis mittlerer Gegenwind, dann wechselnd, ab Telfs Rueckenwind, von Haiming bis Moetz Gegenwind - locker ... garmin connect
Splits
Distanz (km) Gesamt Zeit Split Zeit Split Tempo Split Tempo Höhenprofil (m)
1,00 00:01:52 00:01:52 00:01:52 32,1 -3,40
2,00 00:03:57 00:02:05 00:02:06 28,6 -4,08
3,00 00:05:46 00:01:48 00:01:48 33,3 2,19
4,00 00:07:34 00:01:48 00:01:49 33,1 1,74
5,00 00:09:24 00:01:49 00:01:49 32,9 3,58
6,00 00:11:32 00:02:08 00:02:09 28,0 8,89
7,00 00:13:26 00:01:53 00:01:54 31,6 -2,79
8,00 00:15:19 00:01:52 00:01:52 32,0 0,84
9,00 00:17:13 00:01:54 00:01:54 31,5 4,13
10,00 00:19:25 00:02:12 00:02:12 27,3 16,22
11,00 00:21:31 00:02:06 00:02:06 28,5 10,67
12,00 00:23:02 00:01:31 00:01:31 39,5 -20,01
13,00 00:24:39 00:01:37 00:01:37 37,0 -4,50
14,00 00:26:26 00:01:46 00:01:46 33,9 5,80
15,00 00:28:08 00:01:42 00:01:42 35,3 0,51
16,00 00:30:04 00:01:55 00:01:56 31,0 2,90
17,00 00:31:56 00:01:52 00:01:52 32,0 4,79
18,00 00:34:10 00:02:13 00:02:14 26,9 14,42
19,00 00:35:48 00:01:38 00:01:38 36,6 -10,70
20,00 00:37:32 00:01:43 00:01:43 34,9 -7,09
21,00 00:39:28 00:01:56 00:01:56 31,0 5,26
22,00 00:41:13 00:01:45 00:01:45 34,3 0,64
23,00 00:43:05 00:01:51 00:01:52 32,2 0,00
24,00 00:44:52 00:01:47 00:01:47 33,6 8,02
25,00 00:46:33 00:01:41 00:01:41 35,6 -3,94
26,00 00:48:20 00:01:47 00:01:47 33,6 5,44
27,00 00:50:01 00:01:40 00:01:41 35,7 -0,40
28,00 00:51:43 00:01:42 00:01:42 35,2 0,22
29,00 00:53:36 00:01:53 00:01:53 31,8 6,71
30,00 00:55:38 00:02:01 00:02:02 29,6 -1,71
31,00 00:57:13 00:01:34 00:01:35 38,0 0,13
32,00 00:58:45 00:01:32 00:01:33 38,9 2,63
33,00 01:00:20 00:01:34 00:01:35 38,0 7,43
34,00 01:01:57 00:01:37 00:01:37 37,1 0,88
35,00 01:03:32 00:01:35 00:01:35 37,7 0,50
36,00 01:05:09 00:01:37 00:01:37 37,1 -0,42
37,00 01:06:40 00:01:30 00:01:30 39,9 3,86
38,00 01:08:13 00:01:33 00:01:34 38,4 0,65
39,00 01:09:48 00:01:34 00:01:35 37,9 -0,06
40,00 01:11:19 00:01:30 00:01:31 39,7 4,67
41,00 01:12:53 00:01:33 00:01:34 38,3 7,68
42,00 01:14:46 00:01:53 00:01:53 31,9 8,50
43,00 01:16:31 00:01:45 00:01:45 34,2 5,90
44,00 01:18:06 00:01:34 00:01:35 38,0 3,99
45,00 01:19:41 00:01:34 00:01:35 37,9 2,28
46,00 01:21:16 00:01:34 00:01:35 38,0 5,54
47,00 01:22:59 00:01:43 00:01:44 34,7 -10,69
48,00 01:24:38 00:01:39 00:01:39 36,4 -6,73
49,00 01:26:29 00:01:51 00:01:51 32,4 -1,67
50,00 01:28:16 00:01:46 00:01:47 33,7 -3,32
51,00 01:30:07 00:01:50 00:01:51 32,5 1,51
52,00 01:32:05 00:01:57 00:01:58 30,5 0,02
53,00 01:33:48 00:01:42 00:01:43 35,0 -6,80
54,00 01:35:40 00:01:52 00:01:52 32,1 -1,77
55,00 01:37:52 00:02:11 00:02:11 27,5 -0,48
55,08 01:38:04 00:00:11 00:02:24 24,9 -0,55